Time;durP1;ratioP1;P1;durP2;ratioP2;P2;SDS_P1;SDS_P2;PMS_P1;PMS_P2;Temp;Humidity;BMP_temperature;BMP_pressure;BME280_temperature;BME280_humidity;BME280_pressure;Samples;Min_cycle;Max_cycle;Signal;HPM_P1;HPM_P2
2024/01/01 00:00:22;;;;;;;60.30;39.70;;;;;;;4.02;93.41;99633.77;111484;239;39356;-57
2024/01/01 00:03:24;;;;;;;62.20;39.70;;;;;;;4.00;93.52;99632.58;111437;238;39648;-58
2024/01/01 00:06:08;;;;;;;68.20;41.30;;;;;;;3.97;93.65;99627.05;111473;239;39459;-54
2024/01/01 00:08:49;;;;;;;62.00;41.60;;;;;;;3.94;93.52;99623.43;111506;239;39821;-54
2024/01/01 00:11:34;;;;;;;66.00;42.50;;;;;;;3.90;93.77;99615.95;111468;239;42616;-57
2024/01/01 00:14:12;;;;;;;66.00;42.50;;;;;;;3.87;93.65;99617.15;111501;239;39784;-57
2024/01/01 00:16:48;;;;;;;61.00;38.90;;;;;;;3.87;93.57;99613.17;111521;239;38957;-57
2024/01/01 00:19:25;;;;;;;66.20;41.90;;;;;;;3.85;93.51;99617.84;111507;239;39818;-57
2024/01/01 00:22:04;;;;;;;63.90;40.80;;;;;;;3.85;93.51;99622.89;111505;239;39244;-54
2024/01/01 00:24:40;;;;;;;64.50;40.00;;;;;;;3.87;93.44;99626.90;111519;239;39426;-54
2024/01/01 00:27:17;;;;;;;58.80;38.20;;;;;;;3.82;93.55;99631.39;111504;239;39618;-54
2024/01/01 00:29:53;;;;;;;50.20;35.40;;;;;;;3.80;93.69;99623.88;111486;239;39570;-57
2024/01/01 00:32:35;;;;;;;62.10;41.50;;;;;;;3.74;93.97;99613.92;111470;239;39248;-55
2024/01/01 00:35:12;;;;;;;68.50;44.00;;;;;;;3.76;93.89;99600.52;111519;239;38982;-54
2024/01/01 00:37:48;;;;;;;53.70;38.70;;;;;;;3.74;93.90;99597.52;111479;239;40205;-54
2024/01/01 00:40:25;;;;;;;59.50;39.70;;;;;;;3.67;94.14;99600.13;111495;238;39570;-54
2024/01/01 00:43:04;;;;;;;61.40;38.30;;;;;;;3.62;94.00;99605.99;111496;239;39197;-54
2024/01/01 00:45:45;;;;;;;59.00;38.50;;;;;;;3.58;94.03;99608.14;111483;239;40683;-57
2024/01/01 00:48:21;;;;;;;58.00;37.40;;;;;;;3.56;93.91;99609.27;111510;239;40190;-58
2024/01/01 00:50:58;;;;;;;54.50;35.70;;;;;;;3.55;93.96;99604.04;111508;239;40416;-56
2024/01/01 00:53:35;;;;;;;54.60;36.00;;;;;;;3.54;93.96;99606.48;111452;239;39793;-57
2024/01/01 00:56:14;;;;;;;53.10;34.30;;;;;;;3.51;94.08;99610.52;111511;239;40024;-57
2024/01/01 00:58:58;;;;;;;49.80;31.90;;;;;;;3.48;94.08;99612.38;111562;239;39408;-58
2024/01/01 01:01:37;;;;;;;47.00;32.20;;;;;;;3.48;94.12;99613.64;111521;239;39624;-53
2024/01/01 01:04:14;;;;;;;47.80;31.10;;;;;;;3.51;94.20;99617.48;111507;239;39841;-54
2024/01/01 01:06:55;;;;;;;45.30;31.20;;;;;;;3.50;94.37;99614.15;111534;238;40017;-53
2024/01/01 01:09:51;;;;;;;46.10;30.10;;;;;;;3.50;94.41;99607.98;111510;239;40631;-54
2024/01/01 01:12:36;;;;;;;45.30;31.00;;;;;;;3.50;94.31;99598.89;111513;239;40234;-55
2024/01/01 01:15:13;;;;;;;46.10;31.10;;;;;;;3.54;94.27;99599.64;111478;239;39622;-59
2024/01/01 01:17:50;;;;;;;44.50;30.30;;;;;;;3.50;94.61;99601.88;111509;239;40106;-58
2024/01/01 01:20:29;;;;;;;48.80;30.50;;;;;;;3.50;94.43;99607.77;111502;239;39276;-53
2024/01/01 01:23:08;;;;;;;43.70;30.30;;;;;;;3.51;94.26;99610.27;111475;239;39426;-54
2024/01/01 01:25:45;;;;;;;43.10;28.50;;;;;;;3.50;94.20;99607.97;111571;238;39339;-54
2024/01/01 01:28:27;;;;;;;44.90;30.40;;;;;;;3.50;94.29;99609.21;111486;239;39164;-54
2024/01/01 01:31:13;;;;;;;47.50;30.50;;;;;;;3.51;94.24;99610.83;111492;239;38814;-57
2024/01/01 01:33:54;;;;;;;43.70;29.30;;;;;;;3.50;94.12;99617.39;111457;239;39111;-56
2024/01/01 01:36:33;;;;;;;47.90;30.20;;;;;;;3.47;94.12;99615.39;111477;239;39715;-53
2024/01/01 01:39:09;;;;;;;49.00;32.70;;;;;;;3.40;94.09;99615.83;111458;239;39004;-54
2024/01/01 01:41:47;;;;;;;47.60;30.30;;;;;;;3.38;94.16;99616.88;111511;239;39784;-55
2024/01/01 01:44:27;;;;;;;43.00;28.10;;;;;;;3.37;94.16;99620.19;111490;239;40221;-55
2024/01/01 01:47:05;;;;;;;42.50;28.20;;;;;;;3.28;94.11;99617.25;111521;238;40755;-56
2024/01/01 01:49:43;;;;;;;40.40;27.50;;;;;;;3.26;94.09;99619.42;111482;239;39318;-58
2024/01/01 01:52:23;;;;;;;38.40;26.00;;;;;;;3.22;93.94;99618.66;111459;239;39456;-57
2024/01/01 01:55:03;;;;;;;38.10;27.50;;;;;;;3.16;93.93;99611.08;111511;239;41663;-54
2024/01/01 01:57:44;;;;;;;41.30;28.40;;;;;;;3.12;93.93;99600.15;111479;239;39356;-54
2024/01/01 02:00:20;;;;;;;41.70;27.90;;;;;;;3.11;93.98;99599.36;111506;239;38985;-53
2024/01/01 02:02:57;;;;;;;44.60;28.80;;;;;;;3.12;94.10;99594.33;111541;239;39285;-54
2024/01/01 02:05:37;;;;;;;47.30;29.30;;;;;;;3.06;94.02;99589.06;111536;239;40298;-57
2024/01/01 02:08:14;;;;;;;44.00;28.50;;;;;;;3.03;93.96;99587.73;111514;239;39455;-56
2024/01/01 02:10:57;;;;;;;39.20;28.30;;;;;;;3.02;93.90;99580.81;111477;239;39181;-56
2024/01/01 02:13:33;;;;;;;50.30;32.00;;;;;;;3.01;93.88;99578.73;111500;239;39670;-58
2024/01/01 02:16:08;;;;;;;48.90;32.50;;;;;;;3.01;93.98;99579.05;111503;239;40083;-59
2024/01/01 02:18:47;;;;;;;49.90;31.00;;;;;;;2.95;93.91;99582.02;111524;239;40434;-59
2024/01/01 02:21:24;;;;;;;42.90;29.20;;;;;;;2.86;93.94;99587.70;111524;239;39485;-57
2024/01/01 02:24:01;;;;;;;44.60;29.80;;;;;;;2.75;93.71;99588.86;111519;239;39369;-57
2024/01/01 02:26:41;;;;;;;48.00;32.00;;;;;;;2.68;93.67;99586.63;111462;239;39637;-56
2024/01/01 02:29:25;;;;;;;45.70;28.40;;;;;;;2.62;93.68;99584.83;111494;239;39611;-57
2024/01/01 02:31:59;;;;;;;41.90;27.20;;;;;;;2.53;93.76;99581.52;111482;239;40795;-57
2024/01/01 02:34:38;;;;;;;40.90;27.20;;;;;;;2.46;93.63;99578.77;111548;239;40870;-56
2024/01/01 02:37:15;;;;;;;42.90;28.50;;;;;;;2.40;93.56;99573.38;111549;239;39773;-53
2024/01/01 02:39:53;;;;;;;44.60;27.40;;;;;;;2.33;93.51;99572.64;111523;239;39024;-55
2024/01/01 02:42:32;;;;;;;45.50;29.70;;;;;;;2.25;93.49;99574.76;111493;239;39873;-56
2024/01/01 02:45:08;;;;;;;46.10;32.20;;;;;;;2.15;93.47;99577.64;111523;239;39296;-60
2024/01/01 02:47:48;;;;;;;46.40;29.70;;;;;;;2.06;93.41;99572.65;111500;239;40844;-59
2024/01/01 02:50:26;;;;;;;44.90;30.00;;;;;;;2.01;93.43;99561.83;111460;239;38870;-59
2024/01/01 02:53:02;;;;;;;45.50;28.00;;;;;;;1.95;93.47;99555.66;111488;239;39210;-59
2024/01/01 02:55:38;;;;;;;42.80;28.20;;;;;;;1.88;93.60;99550.14;111407;239;40207;-59
2024/01/01 02:58:13;;;;;;;41.90;27.90;;;;;;;1.78;93.63;99549.41;111465;239;39620;-58
2024/01/01 03:00:51;;;;;;;47.20;29.40;;;;;;;1.68;93.57;99548.77;111459;239;39716;-59
2024/01/01 03:03:30;;;;;;;47.90;29.70;;;;;;;1.66;93.73;99547.44;111491;239;39116;-59
2024/01/01 03:06:10;;;;;;;46.80;31.60;;;;;;;1.66;93.78;99549.04;111463;239;39768;-55
2024/01/01 03:08:46;;;;;;;46.20;30.80;;;;;;;1.68;93.96;99544.80;111477;239;40012;-55
2024/01/01 03:11:31;;;;;;;45.50;31.10;;;;;;;1.69;94.08;99547.13;111349;239;39433;-54
2024/01/01 03:14:06;;;;;;;48.20;30.90;;;;;;;1.69;94.21;99544.67;111517;239;40348;-54
2024/01/01 03:16:40;;;;;;;47.50;31.20;;;;;;;1.72;94.48;99545.02;111521;239;40238;-55
2024/01/01 03:19:13;;;;;;;;;;;;;;;1.68;94.31;99548.63;111489;239;40157;-56
2024/01/01 03:21:48;;;;;;;48.80;30.70;;;;;;;1.62;94.29;99551.40;111487;239;39135;-55
2024/01/01 03:24:26;;;;;;;;;;;;;;;1.57;94.23;99551.19;111499;239;40070;-55
2024/01/01 03:27:06;;;;;;;50.40;33.40;;;;;;;1.51;94.17;99551.94;111513;239;39509;-54
2024/01/01 03:29:43;;;;;;;56.10;33.50;;;;;;;1.48;94.11;99547.62;111457;240;40482;-57
2024/01/01 03:32:22;;;;;;;48.50;31.80;;;;;;;1.39;94.05;99543.77;111519;239;40174;-59
2024/01/01 03:35:02;;;;;;;51.70;30.90;;;;;;;1.30;93.99;99545.91;111509;239;39887;-56
2024/01/01 03:37:41;;;;;;;47.80;30.30;;;;;;;1.21;94.05;99549.10;111504;239;39483;-56
2024/01/01 03:40:18;;;;;;;41.50;28.10;;;;;;;1.18;93.96;99552.34;111494;239;39883;-56
2024/01/01 03:43:01;;;;;;;39.60;26.90;;;;;;;1.16;93.91;99553.71;111512;239;40256;-56
2024/01/01 03:45:37;;;;;;;41.20;28.20;;;;;;;1.09;94.12;99555.43;111468;239;40413;-55
2024/01/01 03:48:13;;;;;;;42.10;26.60;;;;;;;1.06;94.24;99556.08;111457;239;39900;-55
2024/01/01 03:50:53;;;;;;;43.90;28.30;;;;;;;1.08;94.38;99555.76;111475;239;39827;-54
2024/01/01 03:53:31;;;;;;;43.20;27.10;;;;;;;1.08;94.46;99554.52;111492;239;39102;-54
2024/01/01 03:56:10;;;;;;;40.50;26.70;;;;;;;1.14;94.52;99550.02;111471;239;39425;-55
2024/01/01 03:58:50;;;;;;;38.90;26.40;;;;;;;1.20;94.62;99546.19;111489;239;40517;-55
2024/01/01 04:01:31;;;;;;;40.50;25.90;;;;;;;1.25;94.70;99542.52;111396;240;39749;-58
2024/01/01 04:04:11;;;;;;;47.90;29.30;;;;;;;1.31;94.92;99539.08;111474;240;39653;-57
2024/01/01 04:06:48;;;;;;;39.20;27.10;;;;;;;1.39;94.98;99536.16;111502;239;39548;-53
2024/01/01 04:09:31;;;;;;;45.20;29.10;;;;;;;1.45;95.00;99531.86;111505;239;40030;-54
2024/01/01 04:12:08;;;;;;;49.20;32.50;;;;;;;1.52;95.10;99522.37;111488;239;40321;-53
2024/01/01 04:14:48;;;;;;;53.70;34.70;;;;;;;1.56;95.22;99520.10;111478;240;39415;-55
2024/01/01 04:17:26;;;;;;;54.40;33.00;;;;;;;1.59;95.28;99518.83;111487;239;39621;-58
2024/01/01 04:20:10;;;;;;;50.90;33.80;;;;;;;1.64;95.37;99521.39;111535;239;39085;-58
2024/01/01 04:22:51;;;;;;;51.30;34.20;;;;;;;1.63;95.43;99519.47;111486;240;39790;-59
2024/01/01 04:25:35;;;;;;;50.80;33.10;;;;;;;1.67;95.59;99517.71;111466;239;39140;-53
2024/01/01 04:28:15;;;;;;;46.60;29.80;;;;;;;1.68;95.61;99512.75;111492;239;40431;-55
2024/01/01 04:30:57;;;;;;;42.60;29.50;;;;;;;1.69;95.54;99514.08;111419;239;39103;-54
2024/01/01 04:33:35;;;;;;;46.40;29.70;;;;;;;1.72;95.61;99517.14;111501;239;40702;-54
2024/01/01 04:36:11;;;;;;;39.70;27.20;;;;;;;1.76;95.67;99516.77;111514;239;39669;-55
2024/01/01 04:38:46;;;;;;;44.20;28.50;;;;;;;1.78;95.73;99512.48;111473;239;40202;-55
2024/01/01 04:41:23;;;;;;;43.60;29.30;;;;;;;1.80;95.73;99508.02;111485;239;39483;-58
2024/01/01 04:44:02;;;;;;;46.40;30.00;;;;;;;1.82;95.72;99503.64;111506;239;39435;-59
2024/01/01 04:46:40;;;;;;;42.90;27.50;;;;;;;1.85;95.73;99499.20;111502;239;39179;-57
2024/01/01 04:49:21;;;;;;;40.00;26.70;;;;;;;1.90;95.87;99498.13;111481;239;39195;-58
2024/01/01 04:51:55;;;;;;;41.70;26.80;;;;;;;1.94;95.80;99496.33;111505;239;40642;-53
2024/01/01 04:54:31;;;;;;;43.20;26.30;;;;;;;1.97;95.84;99493.19;111507;239;39757;-53
2024/01/01 04:57:06;;;;;;;40.20;26.00;;;;;;;2.00;95.89;99490.02;111512;239;39300;-58
2024/01/01 04:59:44;;;;;;;39.10;24.80;;;;;;;2.04;95.81;99488.94;111520;239;40022;-56
2024/01/01 05:02:26;;;;;;;38.00;25.90;;;;;;;2.07;96.00;99487.46;111476;239;41100;-53
2024/01/01 05:05:08;;;;;;;39.10;25.30;;;;;;;2.12;95.98;99489.05;111468;239;39921;-55
2024/01/01 05:07:47;;;;;;;38.40;26.70;;;;;;;2.10;95.93;99494.30;111474;239;40194;-55
2024/01/01 05:10:27;;;;;;;43.80;27.60;;;;;;;2.09;96.00;99492.06;111475;239;40418;-56
2024/01/01 05:13:02;;;;;;;44.90;29.00;;;;;;;2.08;96.17;99492.39;111463;239;40049;-56
2024/01/01 05:15:38;;;;;;;47.50;28.60;;;;;;;2.09;96.21;99491.68;111536;239;39056;-53
2024/01/01 05:18:14;;;;;;;56.10;32.10;;;;;;;2.12;96.26;99494.11;111483;239;40012;-53
2024/01/01 05:20:50;;;;;;;51.90;32.60;;;;;;;2.16;96.42;99498.83;111478;239;39588;-53
2024/01/01 05:23:26;;;;;;;52.50;33.60;;;;;;;2.18;96.34;99493.95;111465;239;40516;-54
2024/01/01 05:26:04;;;;;;;52.70;32.40;;;;;;;2.23;96.50;99489.86;111375;239;41848;-56
2024/01/01 05:28:41;;;;;;;47.60;29.90;;;;;;;2.26;96.53;99492.77;111444;239;40798;-56
2024/01/01 05:31:22;;;;;;;42.10;26.60;;;;;;;2.32;96.55;99490.91;111462;239;39270;-55
2024/01/01 05:33:59;;;;;;;41.70;27.10;;;;;;;2.35;96.55;99490.43;111466;239;38966;-54
2024/01/01 05:36:35;;;;;;;40.10;27.00;;;;;;;2.39;96.58;99494.95;111496;239;38851;-54
2024/01/01 05:39:09;;;;;;;40.80;26.80;;;;;;;2.44;96.62;99490.05;111484;239;40735;-54
2024/01/01 05:41:48;;;;;;;39.50;26.20;;;;;;;2.47;96.71;99484.70;111457;239;40158;-55
2024/01/01 05:44:28;;;;;;;44.00;28.30;;;;;;;2.51;96.62;99483.25;111475;239;39600;-55
2024/01/01 05:47:03;;;;;;;44.80;29.10;;;;;;;2.55;96.62;99482.04;111476;239;40980;-59
2024/01/01 05:49:40;;;;;;;60.80;35.10;;;;;;;2.55;96.68;99479.45;111479;239;40194;-60
2024/01/01 05:52:21;;;;;;;51.50;33.30;;;;;;;2.59;96.73;99481.70;111475;239;39599;-54
2024/01/01 05:55:04;;;;;;;43.70;28.60;;;;;;;2.62;96.83;99479.39;111506;239;39478;-59
2024/01/01 05:57:47;;;;;;;45.80;29.20;;;;;;;2.63;96.77;99476.98;111451;239;40372;-60
2024/01/01 06:00:24;;;;;;;42.30;28.20;;;;;;;2.67;96.83;99473.34;111521;239;41367;-59
2024/01/01 06:03:04;;;;;;;44.40;27.40;;;;;;;2.66;96.82;99477.85;111464;239;39006;-62
2024/01/01 06:05:45;;;;;;;46.20;29.30;;;;;;;2.67;96.76;99479.51;111482;239;39292;-57
2024/01/01 06:08:23;;;;;;;45.30;29.50;;;;;;;2.70;96.81;99474.28;111453;239;39632;-55
2024/01/01 06:10:57;;;;;;;42.70;28.10;;;;;;;2.70;96.89;99476.72;111498;239;39102;-54
2024/01/01 06:13:34;;;;;;;34.50;22.80;;;;;;;2.72;97.01;99488.03;111494;239;40161;-54
2024/01/01 06:16:11;;;;;;;40.70;25.90;;;;;;;2.79;96.84;99482.19;111513;239;39064;-58
2024/01/01 06:18:47;;;;;;;38.70;25.50;;;;;;;2.82;96.84;99481.42;111492;239;39810;-58
2024/01/01 06:21:23;;;;;;;37.40;25.50;;;;;;;2.87;96.81;99483.58;111465;239;40719;-54
2024/01/01 06:24:04;;;;;;;36.40;24.60;;;;;;;2.91;96.75;99484.95;111485;239;39740;-55
2024/01/01 06:26:42;;;;;;;38.00;25.20;;;;;;;2.92;96.70;99485.17;111483;239;40226;-59
2024/01/01 06:29:19;;;;;;;38.10;25.70;;;;;;;2.94;96.81;99487.45;111472;239;39538;-59
2024/01/01 06:31:59;;;;;;;40.10;26.60;;;;;;;2.97;96.86;99490.32;111538;239;41004;-59
2024/01/01 06:34:37;;;;;;;41.50;27.50;;;;;;;2.98;96.83;99491.13;111512;239;39512;-59
2024/01/01 06:37:15;;;;;;;40.20;25.90;;;;;;;2.98;96.88;99488.66;111516;239;39286;-56
2024/01/01 06:39:58;;;;;;;41.10;27.00;;;;;;;3.02;96.93;99488.34;111452;239;39042;-56
2024/01/01 06:42:38;;;;;;;45.00;29.30;;;;;;;3.03;96.82;99486.77;111469;239;39244;-55
2024/01/01 06:45:18;;;;;;;43.00;29.20;;;;;;;3.01;96.78;99476.23;111477;239;39913;-59
2024/01/01 06:47:59;;;;;;;41.20;26.80;;;;;;;3.04;96.83;99472.96;111507;239;40564;-60
2024/01/01 06:50:36;;;;;;;43.40;28.10;;;;;;;3.03;96.74;99473.54;111515;239;39181;-56
2024/01/01 06:53:16;;;;;;;38.10;26.00;;;;;;;3.03;96.79;99477.51;111485;239;40772;-55
2024/01/01 06:55:55;;;;;;;39.90;26.70;;;;;;;3.00;96.94;99476.03;111523;239;39417;-59
2024/01/01 06:58:40;;;;;;;42.70;28.80;;;;;;;3.02;97.01;99481.00;111439;239;40788;-59
2024/01/01 07:01:28;;;;;;;41.30;26.50;;;;;;;3.00;96.95;99480.77;111488;239;39502;-59
2024/01/01 07:04:05;;;;;;;37.70;27.00;;;;;;;3.02;97.13;99476.57;111447;239;39901;-60
2024/01/01 07:06:43;;;;;;;41.40;27.00;;;;;;;3.04;97.07;99472.61;111464;239;40496;-59
2024/01/01 07:09:19;;;;;;;39.10;27.80;;;;;;;3.04;96.94;99473.67;111501;239;39920;-59
2024/01/01 07:12:00;;;;;;;42.00;28.70;;;;;;;3.02;96.90;99475.30;111472;239;39219;-55
2024/01/01 07:14:54;;;;;;;40.30;26.60;;;;;;;3.06;96.84;99474.53;111512;239;40049;-55
2024/01/01 07:17:33;;;;;;;37.90;25.30;;;;;;;3.05;96.87;99476.77;111393;239;40856;-55
2024/01/01 07:20:12;;;;;;;38.90;26.50;;;;;;;3.08;97.02;99477.31;111475;239;39874;-58
2024/01/01 07:22:52;;;;;;;37.50;26.20;;;;;;;3.10;96.96;99481.16;111492;239;40494;-59
2024/01/01 07:25:28;;;;;;;34.50;23.30;;;;;;;3.10;96.82;99481.65;111483;239;39108;-58
2024/01/01 07:28:07;;;;;;;37.00;24.50;;;;;;;3.14;96.92;99484.96;111498;239;39193;-58
2024/01/01 07:30:46;;;;;;;35.90;24.50;;;;;;;3.18;96.85;99487.54;111473;239;40022;-58
2024/01/01 07:33:26;;;;;;;39.40;24.60;;;;;;;3.23;96.77;99483.50;111472;240;39195;-58
2024/01/01 07:36:05;;;;;;;36.40;24.70;;;;;;;3.23;96.77;99477.47;111478;239;39083;-54
2024/01/01 07:38:41;;;;;;;35.80;23.60;;;;;;;3.19;96.75;99476.42;111448;239;39676;-54
2024/01/01 07:41:16;;;;;;;36.50;25.20;;;;;;;3.20;96.71;99478.43;111481;239;39244;-58
2024/01/01 07:43:56;;;;;;;35.60;25.20;;;;;;;3.21;96.82;99482.08;111114;239;476494;-58
2024/01/01 07:46:33;;;;;;;40.70;25.30;;;;;;;3.23;96.74;99484.30;111444;240;40974;-54
2024/01/01 07:49:15;;;;;;;41.30;24.80;;;;;;;3.26;97.00;99484.43;111471;239;40021;-54
2024/01/01 07:51:56;;;;;;;40.40;24.90;;;;;;;3.26;96.95;99485.95;111471;240;41099;-59
2024/01/01 07:54:34;;;;;;;44.80;26.80;;;;;;;3.31;96.95;99482.44;111514;239;39482;-59
2024/01/01 07:57:09;;;;;;;47.90;27.90;;;;;;;3.33;97.10;99483.32;111482;239;39298;-59
2024/01/01 07:59:48;;;;;;;49.50;28.50;;;;;;;3.33;97.12;99487.49;111517;239;41112;-57
2024/01/01 08:02:24;;;;;;;51.40;28.00;;;;;;;3.37;97.16;99491.36;111476;239;39714;-59
2024/01/01 08:05:03;;;;;;;55.20;29.30;;;;;;;3.40;97.26;99490.53;111470;239;39096;-55
2024/01/01 08:07:47;;;;;;;49.20;28.80;;;;;;;3.44;97.26;99485.30;111466;239;39610;-53
2024/01/01 08:10:28;;;;;;;51.30;27.30;;;;;;;3.45;97.45;99482.35;111474;239;38972;-53
2024/01/01 08:13:04;;;;;;;57.60;30.00;;;;;;;3.48;97.28;99481.06;111474;239;39510;-54
2024/01/01 08:15:39;;;;;;;55.80;30.50;;;;;;;3.49;97.37;99475.68;111526;239;40001;-55
2024/01/01 08:18:15;;;;;;;56.40;31.00;;;;;;;3.53;97.40;99470.74;111509;239;38962;-55
2024/01/01 08:20:54;;;;;;;56.00;30.20;;;;;;;3.54;97.43;99470.48;111427;239;39989;-59
2024/01/01 08:23:33;;;;;;;54.50;30.30;;;;;;;3.56;97.31;99470.08;111471;239;39372;-57
2024/01/01 08:26:12;;;;;;;56.50;31.70;;;;;;;3.59;97.38;99474.35;111462;239;39796;-57
2024/01/01 08:28:51;;;;;;;59.20;29.50;;;;;;;3.64;97.31;99471.91;111462;239;41211;-58
2024/01/01 08:31:30;;;;;;;58.10;30.90;;;;;;;3.67;97.34;99469.70;111461;239;40083;-55
2024/01/01 08:34:09;;;;;;;57.80;31.60;;;;;;;3.70;97.33;99473.15;111491;239;39525;-55
2024/01/01 08:36:53;;;;;;;68.30;34.80;;;;;;;3.72;97.29;99468.80;111466;239;40217;-57
2024/01/01 08:39:35;;;;;;;60.30;33.20;;;;;;;3.69;97.47;99463.26;111466;239;40218;-56
2024/01/01 08:42:12;;;;;;;59.80;32.00;;;;;;;3.70;97.43;99469.10;111489;239;39517;-53
2024/01/01 08:44:52;;;;;;;62.30;32.00;;;;;;;3.71;97.45;99466.25;111484;239;39392;-58
2024/01/01 08:47:36;;;;;;;56.60;32.50;;;;;;;3.74;97.48;99468.95;111450;239;40107;-57
2024/01/01 08:50:14;;;;;;;61.60;31.80;;;;;;;3.74;97.28;99468.83;111491;239;39163;-59
2024/01/01 08:52:50;;;;;;;61.90;32.00;;;;;;;3.73;97.42;99461.98;111511;239;40977;-61
2024/01/01 08:55:31;;;;;;;55.90;31.20;;;;;;;3.77;97.41;99459.34;111505;239;40459;-57
2024/01/01 08:58:08;;;;;;;57.80;30.90;;;;;;;3.82;97.34;99462.38;111529;239;39309;-57
2024/01/01 09:00:46;;;;;;;53.50;30.90;;;;;;;3.85;97.37;99465.96;111511;239;39812;-54
2024/01/01 09:03:24;;;;;;;56.10;30.10;;;;;;;3.86;97.29;99467.83;111507;239;39456;-54
2024/01/01 09:06:00;;;;;;;51.90;30.70;;;;;;;3.88;97.29;99467.77;111516;239;39048;-56
2024/01/01 09:08:44;;;;;;;51.60;30.90;;;;;;;3.89;97.34;99465.67;111476;239;39842;-54
2024/01/01 09:11:19;;;;;;;44.80;24.70;;;;;;;3.90;97.38;99464.86;111452;239;39356;-58
2024/01/01 09:13:58;;;;;;;;;;;;;;;3.89;97.41;99461.39;111487;239;38892;-61
2024/01/01 09:16:42;;;;;;;57.50;31.30;;;;;;;3.92;97.45;99461.55;111522;239;40622;-57
2024/01/01 09:19:18;;;;;;;54.70;31.90;;;;;;;3.92;97.38;99461.52;111473;239;39806;-56
2024/01/01 09:21:57;;;;;;;55.00;30.80;;;;;;;3.95;97.35;99459.61;111517;239;39417;-61
2024/01/01 09:24:36;;;;;;;55.70;30.90;;;;;;;3.99;97.34;99464.23;111509;239;40077;-61
2024/01/01 09:27:19;;;;;;;55.20;30.90;;;;;;;4.00;97.41;99459.60;111419;239;39200;-61
2024/01/01 09:30:03;;;;;;;50.20;30.10;;;;;;;3.92;97.48;99461.10;111518;239;39235;-56
2024/01/01 09:32:40;;;;;;;59.30;32.60;;;;;;;3.89;97.40;99458.75;111516;239;41042;-54
2024/01/01 09:35:15;;;;;;;56.80;32.80;;;;;;;3.89;97.61;99455.48;111538;239;39509;-60
2024/01/01 09:37:52;;;;;;;69.00;35.80;;;;;;;3.93;97.47;99452.08;111523;239;39766;-57
2024/01/01 09:40:31;;;;;;;75.50;37.70;;;;;;;3.93;97.38;99446.15;111518;239;39802;-56
2024/01/01 09:43:15;;;;;;;76.20;38.10;;;;;;;3.93;97.46;99440.58;111485;239;39431;-59
2024/01/01 09:45:55;;;;;;;73.70;37.00;;;;;;;3.94;97.45;99442.16;111546;239;39705;-58
2024/01/01 09:48:35;;;;;;;78.70;38.50;;;;;;;3.91;97.54;99440.52;111407;239;42684;-59
2024/01/01 09:51:13;;;;;;;67.10;36.10;;;;;;;3.88;97.47;99437.99;111512;239;39747;-57
2024/01/01 09:53:52;;;;;;;65.10;36.40;;;;;;;3.89;97.44;99441.05;111490;239;39711;-56
2024/01/01 09:56:26;;;;;;;58.60;33.70;;;;;;;3.93;97.65;99437.24;111484;239;39779;-57
2024/01/01 09:59:05;;;;;;;53.90;32.40;;;;;;;3.94;97.62;99435.37;111472;239;39931;-58
2024/01/01 10:01:44;;;;;;;53.10;33.30;;;;;;;3.97;97.53;99428.61;111492;239;39483;-57
2024/01/01 10:04:25;;;;;;;55.10;33.10;;;;;;;3.99;97.47;99429.21;111470;239;39286;-56
2024/01/01 10:07:03;;;;;;;47.80;30.10;;;;;;;4.02;97.67;99429.67;111514;239;39044;-60
2024/01/01 10:09:49;;;;;;;50.80;31.70;;;;;;;4.01;97.49;99427.56;111487;239;39619;-60
2024/01/01 10:12:27;;;;;;;49.00;29.20;;;;;;;4.05;97.54;99426.95;111572;239;39536;-60
2024/01/01 10:15:06;;;;;;;45.50;28.20;;;;;;;4.04;97.54;99424.39;111520;239;39575;-57
2024/01/01 10:17:48;;;;;;;44.10;27.80;;;;;;;4.09;97.58;99420.50;111523;239;39105;-57
2024/01/01 10:20:26;;;;;;;42.90;27.10;;;;;;;4.07;97.65;99424.81;111549;239;39292;-60
2024/01/01 10:23:26;;;;;;;44.00;28.10;;;;;;;4.06;97.78;99417.36;111517;239;40255;-60
2024/01/01 10:26:11;;;;;;;43.60;26.90;;;;;;;4.10;97.75;99414.42;111555;239;39705;-57
2024/01/01 10:28:48;;;;;;;38.60;24.40;;;;;;;4.12;97.80;99415.07;111497;239;41729;-57
2024/01/01 10:31:26;;;;;;;34.30;23.00;;;;;;;4.14;97.59;99412.89;111502;239;38847;-56
2024/01/01 10:34:10;;;;;;;33.50;22.70;;;;;;;4.16;97.52;99415.05;111307;239;39865;-57
2024/01/01 10:36:49;;;;;;;35.70;24.20;;;;;;;4.16;97.60;99413.29;111489;239;41064;-56
2024/01/01 10:39:28;;;;;;;34.90;23.40;;;;;;;4.17;97.65;99412.58;111521;239;39621;-57
2024/01/01 10:42:03;;;;;;;35.90;24.40;;;;;;;4.22;97.45;99410.83;111507;239;39314;-57
2024/01/01 10:44:39;;;;;;;38.20;25.70;;;;;;;4.24;97.39;99402.36;111451;239;39972;-57
2024/01/01 10:47:24;;;;;;;36.40;23.90;;;;;;;4.22;97.31;99404.75;111465;239;39021;-57
2024/01/01 10:50:25;;;;;;;39.60;25.60;;;;;;;4.22;97.34;99403.55;111482;239;41359;-57
2024/01/01 10:53:28;;;;;;;34.50;24.30;;;;;;;4.25;97.33;99394.73;111522;239;40110;-56
2024/01/01 10:56:21;;;;;;;33.60;23.30;;;;;;;4.26;97.41;99394.17;111496;239;39918;-57
2024/01/01 10:59:11;;;;;;;35.80;24.00;;;;;;;4.24;97.48;99388.91;111515;239;39915;-58
2024/01/01 11:01:48;;;;;;;33.70;23.00;;;;;;;4.24;97.63;99391.84;111524;239;41099;-61
2024/01/01 11:04:29;;;;;;;34.60;23.80;;;;;;;4.27;97.67;99395.70;111532;239;39696;-61
2024/01/01 11:07:10;;;;;;;35.40;24.80;;;;;;;4.29;97.52;99389.55;111595;239;40078;-58
2024/01/01 11:09:53;;;;;;;34.20;25.00;;;;;;;4.27;97.43;99390.10;111521;239;40441;-58
2024/01/01 11:12:38;;;;;;;31.40;22.00;;;;;;;4.23;97.46;99386.27;111496;239;39239;-58
2024/01/01 11:15:50;;;;;;;33.50;22.70;;;;;;;4.26;97.45;99380.68;111555;239;40815;-60
2024/01/01 11:18:37;;;;;;;35.90;23.80;;;;;;;4.28;97.50;99370.00;111446;239;39809;-61
2024/01/01 11:21:28;;;;;;;34.00;23.90;;;;;;;4.26;97.42;99363.64;111540;239;38808;-61
2024/01/01 11:24:04;;;;;;;34.80;24.70;;;;;;;4.26;97.36;99362.99;111380;240;39834;-61
2024/01/01 11:26:50;;;;;;;33.50;23.90;;;;;;;4.28;97.39;99363.86;111535;239;39147;-57
2024/01/01 11:29:39;;;;;;;32.80;22.90;;;;;;;4.23;97.30;99362.81;111401;240;42571;-56
2024/01/01 11:32:18;;;;;;;34.10;23.20;;;;;;;4.23;97.48;99366.33;111472;239;39404;-57
2024/01/01 11:35:11;;;;;;;38.00;24.80;;;;;;;4.23;97.43;99366.86;111421;239;39068;-58
2024/01/01 11:37:47;;;;;;;37.50;25.70;;;;;;;4.27;97.43;99362.90;111454;239;39883;-57
2024/01/01 11:40:28;;;;;;;32.80;22.50;;;;;;;4.30;97.39;99360.41;111523;239;39262;-57
2024/01/01 11:43:12;;;;;;;31.30;21.90;;;;;;;4.31;97.38;99361.71;111485;239;38936;-57
2024/01/01 11:45:56;;;;;;;29.20;20.60;;;;;;;4.31;97.37;99362.54;111508;239;39043;-57
2024/01/01 11:48:42;;;;;;;30.50;22.30;;;;;;;4.31;97.28;99360.44;111523;239;39026;-57
2024/01/01 11:51:20;;;;;;;31.00;21.40;;;;;;;4.32;97.22;99360.27;111508;239;39870;-58
2024/01/01 11:54:12;;;;;;;28.80;21.10;;;;;;;4.30;97.20;99357.20;111592;239;39718;-58
2024/01/01 11:56:54;;;;;;;30.20;20.70;;;;;;;4.25;97.19;99354.16;111498;239;40304;-60
2024/01/01 11:59:38;;;;;;;28.60;19.70;;;;;;;4.23;97.32;99350.33;111546;239;39696;-60
2024/01/01 12:02:13;;;;;;;27.90;19.00;;;;;;;4.21;97.37;99355.54;111526;239;39671;-57
2024/01/01 12:04:48;;;;;;;26.40;19.40;;;;;;;4.18;97.37;99356.05;111512;239;40307;-58
2024/01/01 12:07:37;;;;;;;30.70;20.20;;;;;;;4.13;97.32;99354.20;111512;239;38848;-58
2024/01/01 12:10:17;;;;;;;33.40;21.40;;;;;;;4.17;97.33;99357.65;111510;239;39953;-58
2024/01/01 12:13:03;;;;;;;32.80;22.30;;;;;;;4.17;97.23;99360.39;111466;239;41034;-58
2024/01/01 12:15:40;;;;;;;30.00;20.40;;;;;;;4.18;97.22;99358.48;111499;239;39392;-57
2024/01/01 12:18:21;;;;;;;35.90;22.80;;;;;;;4.18;97.20;99359.42;111496;239;39542;-57
2024/01/01 12:21:06;;;;;;;31.40;21.60;;;;;;;4.11;97.21;99362.50;111507;239;39369;-61
2024/01/01 12:23:47;;;;;;;32.20;21.30;;;;;;;4.10;97.38;99365.44;111515;239;39561;-61